createdAt,value
2023-05-19T00:01:01.372Z,7.88
2023-05-19T00:03:31.207Z,8.95
2023-05-19T00:06:00.346Z,6.93
2023-05-19T00:08:31.998Z,9.30
2023-05-19T00:11:02.526Z,13.20
2023-05-19T00:13:31.380Z,13.57
2023-05-19T00:15:59.920Z,9.02
2023-05-19T00:18:29.876Z,9.90
2023-05-19T00:20:57.685Z,9.65
2023-05-19T00:23:25.592Z,11.50
2023-05-19T00:25:54.373Z,10.70
2023-05-19T00:28:24.018Z,9.75
2023-05-19T00:30:52.151Z,8.23
2023-05-19T00:33:20.221Z,8.70
2023-05-19T00:35:48.735Z,10.52
2023-05-19T00:38:16.884Z,11.55
2023-05-19T00:40:45.284Z,10.80
2023-05-19T00:43:13.562Z,10.25
2023-05-19T00:45:43.489Z,11.73
2023-05-19T00:48:17.809Z,12.55
2023-05-19T00:50:46.272Z,12.65
2023-05-19T00:53:17.683Z,12.73
2023-05-19T00:55:47.666Z,11.90
2023-05-19T00:58:16.394Z,9.73
2023-05-19T01:00:46.427Z,12.65
2023-05-19T01:03:20.654Z,11.88
2023-05-19T01:05:49.760Z,7.68
2023-05-19T01:08:18.132Z,9.48
2023-05-19T01:10:45.927Z,8.82
2023-05-19T01:13:13.764Z,7.75
2023-05-19T01:15:57.644Z,8.50
2023-05-19T01:18:32.298Z,10.57
2023-05-19T01:21:11.201Z,10.52
2023-05-19T01:23:45.024Z,11.73
2023-05-19T01:26:19.813Z,11.10
2023-05-19T01:29:08.943Z,12.23
2023-05-19T01:31:40.037Z,7.45
2023-05-19T01:34:10.695Z,8.32
2023-05-19T01:36:44.683Z,9.32
2023-05-19T01:39:14.939Z,10.20
2023-05-19T01:41:45.478Z,9.73
2023-05-19T01:44:13.274Z,10.82
2023-05-19T01:46:42.869Z,7.60
2023-05-19T01:49:11.569Z,9.20
2023-05-19T01:51:41.871Z,9.70
2023-05-19T01:54:12.117Z,10.40
2023-05-19T01:56:45.998Z,10.75
2023-05-19T01:59:25.328Z,8.77
2023-05-19T02:01:55.352Z,8.70
2023-05-19T02:04:31.376Z,8.85
2023-05-19T02:07:03.158Z,6.47
2023-05-19T02:09:40.427Z,7.50
2023-05-19T02:12:12.796Z,9.57
2023-05-19T02:14:44.263Z,7.13
2023-05-19T02:17:14.138Z,14.48
2023-05-19T02:19:44.356Z,7.10
2023-05-19T02:22:12.215Z,6.90
2023-05-19T02:24:41.366Z,9.35
2023-05-19T02:27:09.732Z,10.13
2023-05-19T02:29:37.502Z,13.48
2023-05-19T02:32:07.934Z,8.50
2023-05-19T02:34:37.724Z,10.60
2023-05-19T02:37:07.550Z,11.27
2023-05-19T02:39:35.715Z,10.23
2023-05-19T02:42:04.026Z,12.18
2023-05-19T02:44:32.111Z,9.80
2023-05-19T02:46:59.958Z,8.25
2023-05-19T02:49:30.795Z,11.38
2023-05-19T02:51:59.919Z,9.85
2023-05-19T02:54:27.744Z,15.05
2023-05-19T02:56:55.730Z,6.82
2023-05-19T02:59:25.594Z,7.93
2023-05-19T03:01:57.075Z,12.23
2023-05-19T03:04:24.918Z,8.32
2023-05-19T03:06:54.216Z,13.32
2023-05-19T03:09:23.636Z,10.95
2023-05-19T03:11:51.544Z,9.73
2023-05-19T03:14:23.848Z,8.50
2023-05-19T03:16:52.430Z,12.15
2023-05-19T03:19:20.978Z,12.30
2023-05-19T03:21:49.582Z,8.15
2023-05-19T03:24:18.109Z,8.50
2023-05-19T03:26:47.915Z,8.15
2023-05-19T03:29:16.424Z,9.45
2023-05-19T03:31:44.382Z,6.53
2023-05-19T03:34:12.855Z,10.63
2023-05-19T03:36:41.787Z,7.88
2023-05-19T03:39:14.922Z,7.30
2023-05-19T03:41:43.448Z,6.22
2023-05-19T03:44:12.752Z,7.60
2023-05-19T03:46:40.854Z,8.27
2023-05-19T03:49:27.838Z,8.88
2023-05-19T03:52:33.864Z,12.23
2023-05-19T03:55:14.671Z,7.85
2023-05-19T03:57:43.427Z,11.95
2023-05-19T04:00:14.516Z,7.13
2023-05-19T04:02:42.996Z,7.55
2023-05-19T04:05:11.229Z,9.15
2023-05-19T04:07:39.226Z,8.73
2023-05-19T04:10:08.078Z,6.50
2023-05-19T04:12:35.946Z,8.63
2023-05-19T04:15:05.759Z,6.85
2023-05-19T04:17:35.140Z,6.68
2023-05-19T04:20:02.939Z,8.35
2023-05-19T04:22:30.650Z,9.52
2023-05-19T04:24:59.275Z,9.50
2023-05-19T04:27:30.031Z,7.80
2023-05-19T04:29:59.233Z,10.77
2023-05-19T04:32:27.056Z,8.18
2023-05-19T04:34:58.823Z,6.05
2023-05-19T04:37:30.374Z,8.27
2023-05-19T04:39:59.131Z,10.35
2023-05-19T04:42:30.634Z,6.75
2023-05-19T04:45:01.168Z,5.38
2023-05-19T04:47:30.454Z,7.22
2023-05-19T04:50:00.727Z,4.82
2023-05-19T04:52:28.883Z,5.82
2023-05-19T04:54:56.832Z,6.47
2023-05-19T04:57:25.612Z,4.95
2023-05-19T04:59:59.725Z,6.28
2023-05-19T05:02:32.101Z,6.22
2023-05-19T05:05:02.712Z,5.45
2023-05-19T05:07:32.318Z,6.28
2023-05-19T05:10:00.832Z,4.57
2023-05-19T05:12:29.991Z,7.45
2023-05-19T05:14:59.453Z,5.93
2023-05-19T05:17:28.690Z,6.80
2023-05-19T05:19:58.214Z,5.10
2023-05-19T05:22:28.510Z,7.95
2023-05-19T05:24:57.259Z,8.52
2023-05-19T05:27:26.015Z,6.65
2023-05-19T05:29:54.514Z,6.97
2023-05-19T05:32:23.415Z,8.02
2023-05-19T05:34:51.492Z,8.75
2023-05-19T05:37:19.308Z,10.13
2023-05-19T05:39:48.698Z,6.30
2023-05-19T05:42:16.966Z,6.43
2023-05-19T05:44:44.931Z,6.20
2023-05-19T05:47:13.689Z,7.15
2023-05-19T05:49:42.343Z,4.55
2023-05-19T05:52:12.420Z,5.50
2023-05-19T05:54:46.286Z,7.65
2023-05-19T05:57:18.250Z,9.35
2023-05-19T05:59:47.413Z,7.38
2023-05-19T06:02:16.970Z,8.07
2023-05-19T06:04:45.052Z,8.38
2023-05-19T06:07:12.759Z,7.88
2023-05-19T06:09:40.784Z,5.95
2023-05-19T06:12:11.334Z,6.28
2023-05-19T06:14:45.508Z,5.28
2023-05-19T06:17:19.616Z,7.00
2023-05-19T06:19:47.405Z,5.95
2023-05-19T06:22:15.859Z,4.88
2023-05-19T06:24:44.670Z,4.00
2023-05-19T06:27:12.429Z,6.05
2023-05-19T06:29:40.796Z,5.53
2023-05-19T06:32:11.902Z,4.40
2023-05-19T06:34:41.999Z,5.15
2023-05-19T06:37:10.463Z,5.03
2023-05-19T06:39:38.870Z,6.20
2023-05-19T06:42:07.275Z,4.85
2023-05-19T06:45:02.499Z,6.13
2023-05-19T06:47:31.685Z,7.38
2023-05-19T06:50:00.639Z,7.75
2023-05-19T06:52:32.712Z,6.68
2023-05-19T06:55:02.263Z,5.93
2023-05-19T06:57:31.639Z,4.00
2023-05-19T06:59:59.598Z,6.32
2023-05-19T07:02:28.068Z,4.63
2023-05-19T07:04:57.391Z,8.25
2023-05-19T07:07:26.704Z,5.03
2023-05-19T07:09:57.288Z,5.20
2023-05-19T07:12:26.922Z,4.45
2023-05-19T07:14:54.807Z,5.22
2023-05-19T07:17:24.554Z,5.32
2023-05-19T07:19:52.775Z,4.55
2023-05-19T07:22:24.622Z,6.90
2023-05-19T07:24:52.681Z,6.70
2023-05-19T07:27:20.518Z,4.35
2023-05-19T07:29:48.408Z,6.35
2023-05-19T07:32:16.348Z,5.55
2023-05-19T07:34:44.121Z,5.28
2023-05-19T07:37:11.915Z,8.48
2023-05-19T07:39:41.015Z,4.38
2023-05-19T07:42:09.011Z,5.07
2023-05-19T07:44:36.880Z,6.30
2023-05-19T07:47:05.275Z,6.78
2023-05-19T07:49:32.997Z,7.15
2023-05-19T07:52:01.424Z,6.93
2023-05-19T07:54:29.151Z,6.00
2023-05-19T07:56:58.214Z,4.28
2023-05-19T07:59:26.146Z,3.10
2023-05-19T08:01:53.921Z,5.70
2023-05-19T08:04:21.740Z,3.00
2023-05-19T08:06:50.150Z,8.85
2023-05-19T08:09:18.751Z,5.28
2023-05-19T08:11:46.817Z,4.85
2023-05-19T08:14:16.333Z,9.57
2023-05-19T08:16:45.684Z,3.35
2023-05-19T08:19:14.044Z,4.68
2023-05-19T08:21:42.710Z,4.30
2023-05-19T08:24:11.358Z,6.07
2023-05-19T08:26:39.128Z,5.35
2023-05-19T08:29:06.889Z,4.90
2023-05-19T08:31:36.126Z,4.50
2023-05-19T08:34:04.815Z,6.90
2023-05-19T08:36:33.941Z,8.35
2023-05-19T08:39:01.868Z,4.97
2023-05-19T08:41:30.091Z,4.68
2023-05-19T08:43:58.031Z,6.20
2023-05-19T08:46:26.922Z,6.70
2023-05-19T08:49:00.226Z,6.53
2023-05-19T08:51:35.964Z,4.63
2023-05-19T08:54:12.318Z,4.85
2023-05-19T08:56:40.134Z,4.70
2023-05-19T08:59:09.154Z,4.20
2023-05-19T09:04:12.518Z,3.38
2023-05-19T09:06:42.552Z,4.40
2023-05-19T09:09:10.852Z,3.60
2023-05-19T09:11:38.592Z,4.43
2023-05-19T09:14:07.179Z,3.58
2023-05-19T09:16:35.313Z,5.38
2023-05-19T09:19:03.253Z,3.00
2023-05-19T09:21:34.381Z,9.10
2023-05-19T09:24:06.084Z,5.53
2023-05-19T09:26:38.365Z,3.58
2023-05-19T09:29:12.778Z,3.45
2023-05-19T09:31:40.835Z,4.43
2023-05-19T09:34:15.598Z,5.75
2023-05-19T09:36:44.715Z,5.07
2023-05-19T09:39:15.815Z,4.35
2023-05-19T09:41:43.896Z,3.63
2023-05-19T09:44:14.370Z,4.70
2023-05-19T09:46:51.701Z,3.97
2023-05-19T09:49:21.516Z,6.07
2023-05-19T09:51:55.247Z,4.15
2023-05-19T09:54:24.051Z,9.07
2023-05-19T09:56:54.239Z,5.80
2023-05-19T09:59:26.075Z,3.08
2023-05-19T10:01:55.686Z,4.47
2023-05-19T10:04:24.707Z,3.15
2023-05-19T10:06:54.873Z,5.78
2023-05-19T10:09:25.120Z,2.80
2023-05-19T10:11:54.047Z,5.13
2023-05-19T10:14:24.247Z,3.92
2023-05-19T10:16:52.741Z,4.00
2023-05-19T10:19:22.036Z,4.38
2023-05-19T10:21:51.099Z,5.50
2023-05-19T10:24:21.239Z,4.43
2023-05-19T10:26:51.223Z,3.90
2023-05-19T10:29:22.427Z,4.90
2023-05-19T10:31:54.720Z,5.25
2023-05-19T10:34:37.845Z,5.40
2023-05-19T10:37:13.854Z,5.25
2023-05-19T10:39:43.611Z,5.38
2023-05-19T10:42:16.944Z,4.18
2023-05-19T10:44:55.310Z,4.72
2023-05-19T10:47:26.441Z,2.97
2023-05-19T10:49:54.878Z,3.22
2023-05-19T10:52:26.060Z,3.05
2023-05-19T10:54:55.793Z,2.80
2023-05-19T10:57:28.189Z,4.85
2023-05-19T10:59:57.292Z,3.55
2023-05-19T11:02:41.976Z,3.72
2023-05-19T11:05:10.533Z,5.03
2023-05-19T11:07:42.458Z,3.58
2023-05-19T11:10:13.058Z,3.33
2023-05-19T11:12:42.948Z,3.92
2023-05-19T11:15:15.598Z,2.83
2023-05-19T11:17:48.318Z,2.92
2023-05-19T11:20:23.546Z,4.63
2023-05-19T11:23:07.720Z,5.30
2023-05-19T11:25:48.034Z,3.55
2023-05-19T11:28:17.249Z,2.95
2023-05-19T11:30:46.617Z,4.93
2023-05-19T11:33:14.891Z,2.80
2023-05-19T11:35:43.300Z,4.13
2023-05-19T11:38:12.052Z,4.18
2023-05-19T11:40:41.932Z,4.28
2023-05-19T11:43:11.245Z,4.22
2023-05-19T11:45:39.328Z,4.18
2023-05-19T11:48:07.380Z,3.92
2023-05-19T11:50:36.816Z,3.58
2023-05-19T11:53:04.914Z,4.50
2023-05-19T11:55:33.605Z,3.40
2023-05-19T11:58:04.518Z,3.17
2023-05-19T12:00:41.279Z,2.70
2023-05-19T12:03:10.268Z,4.63
2023-05-19T12:05:42.710Z,4.97
2023-05-19T12:08:11.245Z,3.50
2023-05-19T12:10:42.075Z,3.25
2023-05-19T12:13:10.561Z,4.75
2023-05-19T12:15:39.912Z,3.58
2023-05-19T12:18:08.527Z,2.92
2023-05-19T12:20:37.643Z,4.10
2023-05-19T12:23:05.652Z,2.55
2023-05-19T12:25:33.835Z,3.13
2023-05-19T12:28:03.317Z,5.32
2023-05-19T12:30:33.409Z,3.40
2023-05-19T12:33:03.533Z,4.10
2023-05-19T12:35:33.582Z,3.00
2023-05-19T12:38:04.189Z,3.92
2023-05-19T12:40:33.220Z,4.15
2023-05-19T12:43:01.475Z,3.05
2023-05-19T12:45:29.636Z,2.83
2023-05-19T12:47:57.788Z,4.00
2023-05-19T12:50:32.864Z,3.75
2023-05-19T12:53:01.359Z,2.50
2023-05-19T12:55:29.434Z,2.80
2023-05-19T12:57:58.462Z,2.90
2023-05-19T13:00:29.003Z,4.18
2023-05-19T13:03:00.326Z,3.38
2023-05-19T13:05:29.249Z,2.55
2023-05-19T13:08:00.447Z,2.70
2023-05-19T13:10:29.011Z,3.03
2023-05-19T13:12:57.417Z,3.17
2023-05-19T13:15:26.144Z,2.78
2023-05-19T13:17:54.464Z,2.33
2023-05-19T13:20:22.651Z,2.80
2023-05-19T13:22:51.161Z,2.70
2023-05-19T13:25:21.284Z,3.65
2023-05-19T13:27:49.894Z,1.90
2023-05-19T13:30:18.441Z,2.70
2023-05-19T13:32:46.913Z,4.07
2023-05-19T13:35:16.105Z,2.80
2023-05-19T13:37:44.617Z,3.05
2023-05-19T13:40:13.209Z,3.35
2023-05-19T13:42:42.711Z,4.38
2023-05-19T13:45:11.197Z,3.33
2023-05-19T13:47:39.205Z,3.90
2023-05-19T13:50:08.159Z,2.60
2023-05-19T13:52:36.140Z,5.15
2023-05-19T13:55:04.026Z,2.78
2023-05-19T13:57:31.802Z,4.25
2023-05-19T14:00:03.823Z,7.60
2023-05-19T14:02:42.456Z,3.65
2023-05-19T14:05:10.553Z,3.00
2023-05-19T14:07:38.376Z,2.97
2023-05-19T14:10:07.080Z,2.83
2023-05-19T14:12:49.401Z,6.97
2023-05-19T14:15:25.693Z,2.83
2023-05-19T14:17:53.960Z,5.75
2023-05-19T14:20:22.612Z,3.47
2023-05-19T14:22:50.413Z,4.82
2023-05-19T14:25:18.220Z,2.67
2023-05-19T14:27:46.005Z,2.63
2023-05-19T14:30:14.065Z,3.30
2023-05-19T14:32:43.192Z,2.72
2023-05-19T14:35:11.168Z,2.50
2023-05-19T14:37:39.234Z,4.28
2023-05-19T14:40:08.145Z,3.90
2023-05-19T14:42:36.385Z,4.38
2023-05-19T14:45:04.502Z,2.78
2023-05-19T14:47:32.974Z,2.33
2023-05-19T14:50:02.576Z,2.67
2023-05-19T14:52:30.478Z,5.13
2023-05-19T14:54:58.213Z,2.60
2023-05-19T14:57:25.940Z,3.20
2023-05-19T14:59:54.181Z,2.10
2023-05-19T15:02:22.365Z,2.70
2023-05-19T15:04:50.909Z,2.95
2023-05-19T15:07:20.586Z,2.45
2023-05-19T15:09:48.508Z,2.45
2023-05-19T15:12:17.117Z,2.75
2023-05-19T15:14:45.478Z,2.08
2023-05-19T15:17:13.881Z,2.10
2023-05-19T15:19:42.848Z,2.40
2023-05-19T15:22:10.709Z,2.45
2023-05-19T15:24:41.102Z,2.30
2023-05-19T15:27:09.432Z,2.63
2023-05-19T15:29:37.247Z,2.50
2023-05-19T15:32:05.334Z,3.20
2023-05-19T15:34:33.972Z,4.45
2023-05-19T15:37:02.483Z,2.60
2023-05-19T15:39:31.151Z,2.63
2023-05-19T15:42:00.910Z,2.47
2023-05-19T15:44:29.950Z,3.08
2023-05-19T15:46:57.655Z,2.67
2023-05-19T15:49:25.988Z,2.65
2023-05-19T15:51:53.705Z,2.30
2023-05-19T15:54:21.518Z,2.33
2023-05-19T15:56:49.289Z,2.22
2023-05-19T15:59:19.319Z,2.83
2023-05-19T16:01:47.548Z,2.42
2023-05-19T16:04:15.802Z,2.85
2023-05-19T16:06:44.502Z,2.50
2023-05-19T16:09:12.322Z,2.28
2023-05-19T16:11:40.146Z,2.38
2023-05-19T16:14:08.027Z,2.63
2023-05-19T16:16:37.509Z,2.35
2023-05-19T16:19:05.461Z,2.10
2023-05-19T16:21:33.375Z,3.00
2023-05-19T16:24:01.353Z,2.70
2023-05-19T16:26:30.031Z,2.58
2023-05-19T16:28:57.929Z,2.72
2023-05-19T16:31:25.870Z,2.42
2023-05-19T16:33:55.028Z,2.65
2023-05-19T16:36:23.683Z,3.25
2023-05-19T16:38:51.489Z,4.78
2023-05-19T16:41:19.389Z,1.90
2023-05-19T16:43:47.152Z,3.00
2023-05-19T16:46:14.929Z,4.80
2023-05-19T16:48:43.587Z,3.35
2023-05-19T16:51:13.192Z,2.95
2023-05-19T16:53:41.126Z,3.58
2023-05-19T16:56:09.064Z,3.30
2023-05-19T16:58:37.376Z,2.30
2023-05-19T17:01:05.515Z,3.20
2023-05-19T17:03:35.629Z,2.83
2023-05-19T17:06:04.274Z,1.75
2023-05-19T17:08:33.472Z,2.15
2023-05-19T17:11:01.486Z,8.77
2023-05-19T17:13:33.526Z,2.45
2023-05-19T17:16:01.653Z,2.55
2023-05-19T17:18:30.358Z,4.57
2023-05-19T17:20:59.264Z,3.53
2023-05-19T17:23:26.980Z,1.98
2023-05-19T17:25:56.608Z,2.08
2023-05-19T17:28:24.734Z,2.22
2023-05-19T17:30:52.878Z,38.65
2023-05-19T17:33:20.898Z,26.45
2023-05-19T17:35:49.388Z,39.35
2023-05-19T17:38:17.422Z,17.45
2023-05-19T17:40:46.133Z,2.53
2023-05-19T17:43:15.643Z,2.53
2023-05-19T17:45:43.455Z,3.22
2023-05-19T17:48:11.873Z,1.98
2023-05-19T17:50:40.829Z,2.65
2023-05-19T17:53:09.197Z,1.80
2023-05-19T17:55:38.197Z,2.25
2023-05-19T17:58:06.368Z,2.88
2023-05-19T18:00:36.198Z,1.90
2023-05-19T18:03:06.450Z,4.55
2023-05-19T18:05:35.574Z,2.95
2023-05-19T18:08:06.923Z,2.95
2023-05-19T18:10:37.850Z,1.88
2023-05-19T18:13:06.285Z,2.03
2023-05-19T18:15:36.106Z,1.85
2023-05-19T18:18:05.586Z,1.67
2023-05-19T18:20:34.186Z,1.75
2023-05-19T18:23:03.051Z,1.98
2023-05-19T18:25:30.896Z,2.33
2023-05-19T18:27:58.547Z,1.73
2023-05-19T18:30:26.345Z,3.00
2023-05-19T18:32:56.205Z,1.90
2023-05-19T18:35:24.334Z,2.78
2023-05-19T18:37:56.250Z,3.20
2023-05-19T18:40:24.582Z,2.70
2023-05-19T18:42:52.507Z,1.75
2023-05-19T18:45:21.333Z,1.60
2023-05-19T18:47:49.834Z,3.05
2023-05-19T18:50:19.210Z,1.98
2023-05-19T18:52:47.092Z,2.15
2023-05-19T18:55:15.833Z,1.83
2023-05-19T18:57:43.592Z,3.70
2023-05-19T19:00:13.445Z,4.15
2023-05-19T19:02:41.311Z,1.52
2023-05-19T19:05:09.869Z,1.70
2023-05-19T19:07:41.611Z,2.58
2023-05-19T19:10:10.187Z,1.60
2023-05-19T19:12:39.047Z,2.00
2023-05-19T19:15:10.495Z,2.60
2023-05-19T19:17:39.916Z,2.40
2023-05-19T19:20:09.094Z,1.95
2023-05-19T19:22:36.893Z,1.70
2023-05-19T19:25:06.792Z,1.70
2023-05-19T19:27:35.592Z,1.80
2023-05-19T19:30:04.415Z,1.95
2023-05-19T19:32:32.918Z,2.08
2023-05-19T19:35:00.844Z,1.60
2023-05-19T19:37:28.632Z,1.80
2023-05-19T19:39:57.872Z,1.60
2023-05-19T19:42:27.316Z,2.80
2023-05-19T19:44:55.914Z,1.50
2023-05-19T19:47:24.027Z,1.58
2023-05-19T19:49:51.872Z,2.72
2023-05-19T19:52:19.634Z,1.63
2023-05-19T19:54:48.063Z,1.50
2023-05-19T19:57:17.186Z,2.17
2023-05-19T19:59:46.987Z,2.63
2023-05-19T20:02:15.199Z,2.45
2023-05-19T20:04:43.145Z,2.75
2023-05-19T20:07:11.413Z,1.70
2023-05-19T20:09:39.288Z,1.70
2023-05-19T20:12:08.177Z,2.05
2023-05-19T20:14:37.106Z,1.70
2023-05-19T20:17:06.656Z,5.00
2023-05-19T20:19:34.938Z,2.25
2023-05-19T20:22:03.060Z,1.60
2023-05-19T20:24:31.100Z,1.70
2023-05-19T20:26:59.800Z,2.80
2023-05-19T20:29:28.204Z,2.88
2023-05-19T20:31:57.330Z,1.98
2023-05-19T20:34:26.710Z,2.35
2023-05-19T20:36:55.094Z,1.52
2023-05-19T20:39:22.955Z,1.83
2023-05-19T20:41:50.706Z,2.83
2023-05-19T20:44:18.946Z,2.53
2023-05-19T20:46:47.062Z,6.32
2023-05-19T20:49:15.232Z,2.47
2023-05-19T20:51:44.590Z,2.17
2023-05-19T20:54:13.081Z,1.73
2023-05-19T20:56:41.181Z,2.05
2023-05-19T20:59:10.071Z,2.17
2023-05-19T21:01:39.209Z,3.35
2023-05-19T21:04:07.759Z,1.63
2023-05-19T21:06:35.818Z,1.70
2023-05-19T21:09:06.947Z,2.47
2023-05-19T21:11:35.138Z,1.73
2023-05-19T21:14:03.877Z,2.78
2023-05-19T21:16:32.179Z,1.85
2023-05-19T21:19:00.338Z,3.20
2023-05-19T21:21:28.356Z,2.28
2023-05-19T21:23:56.831Z,2.85
2023-05-19T21:26:26.460Z,2.97
2023-05-19T21:28:54.882Z,3.53
2023-05-19T21:31:23.439Z,4.15
2023-05-19T21:33:51.921Z,2.30
2023-05-19T21:36:20.062Z,3.30
2023-05-19T21:38:47.915Z,3.22
2023-05-19T21:41:16.279Z,1.63
2023-05-19T21:43:49.862Z,1.90
2023-05-19T21:46:18.071Z,3.20
2023-05-19T21:48:45.940Z,2.30
2023-05-19T21:51:14.908Z,3.13
2023-05-19T21:53:43.098Z,2.78
2023-05-19T21:56:12.022Z,2.13
2023-05-19T21:58:40.872Z,2.17
2023-05-19T22:01:10.326Z,3.75
2023-05-19T22:03:38.647Z,5.88
2023-05-19T22:06:08.722Z,4.70
2023-05-19T22:08:36.889Z,3.58
2023-05-19T22:11:05.183Z,3.95
2023-05-19T22:13:33.921Z,1.83
2023-05-19T22:16:06.290Z,2.40
2023-05-19T22:18:35.443Z,3.40
2023-05-19T22:21:03.294Z,1.90
2023-05-19T22:23:31.128Z,2.58
2023-05-19T22:25:59.723Z,3.13
2023-05-19T22:28:28.269Z,4.05
2023-05-19T22:30:56.011Z,2.83
2023-05-19T22:33:24.113Z,1.80
2023-05-19T22:35:53.282Z,1.73
2023-05-19T22:38:21.323Z,1.40
2023-05-19T22:40:49.661Z,2.75
2023-05-19T22:43:17.729Z,1.52
2023-05-19T22:45:45.664Z,2.15
2023-05-19T22:48:13.407Z,1.63
2023-05-19T22:50:41.429Z,1.92
2023-05-19T22:53:10.537Z,2.17
2023-05-19T22:55:38.252Z,2.22
2023-05-19T22:58:06.402Z,3.83
2023-05-19T23:00:34.487Z,2.47
2023-05-19T23:03:03.076Z,2.67
2023-05-19T23:05:30.905Z,2.10
2023-05-19T23:07:58.749Z,1.90
2023-05-19T23:10:27.838Z,2.55
2023-05-19T23:12:55.643Z,1.88
2023-05-19T23:15:24.327Z,1.75
2023-05-19T23:17:52.613Z,2.00
2023-05-19T23:20:20.577Z,1.80
2023-05-19T23:22:48.515Z,1.90
2023-05-19T23:25:16.625Z,2.35
2023-05-19T23:27:46.462Z,2.47
2023-05-19T23:30:14.261Z,2.28
2023-05-19T23:32:42.540Z,2.20
2023-05-19T23:35:12.282Z,2.47
2023-05-19T23:37:40.256Z,2.30
2023-05-19T23:40:09.040Z,2.40
2023-05-19T23:42:37.619Z,2.28
2023-05-19T23:45:08.818Z,2.33
2023-05-19T23:47:36.786Z,3.58
2023-05-19T23:50:04.987Z,2.42
2023-05-19T23:52:32.808Z,2.67
2023-05-19T23:55:03.312Z,2.20
2023-05-19T23:57:31.123Z,2.28
2023-05-19T23:59:58.833Z,2.45
